»·PEaware :: N9510L KAJO-KVCV

N9510L :: KAJO-KVCV

FLIGHT INFORMATION

Flight Status: Arrived
Operator: Privately registered:
United States
More flights under this callsign
Pilot: Rich S. (24902)
Aircraft: CESSNA 172 SKYHAWK
(C172)
More flights by this aircraft type
Origin: KAJO Corona Mun
United States
Destination: KVCV Socal Logistics
United States
More flights between these airports :: More routes between these airports
Route: +PDZ V442 APLES
File this flight plan on PilotEdge
Remarks:
Altitude:
(Current/Filed)
10,000ft
Speed:
(Current/Filed)
115kts
Departed: 08-Nov-20 09:02 AM
Arrived: 08-Nov-20 11:29 AM
Distance/Time
Traveled:
43nm/2:27
Distance/Time
To Go:
Arrived

Flight Plot

Page will automatically refresh every two minutes.


Map Options




Map Legend


Flown Route
Filed Route
Departure Airport
Arrival Airport
Navaid (VOR, NDB)
Fix

Horizontal Profiles

Position Reports

Time Latitude Longitude Heading Altitude Ground
Speed
08-Nov-20 08:49 33.896987 -117.607472 354 537ft 0kts
08-Nov-20 08:50 33.896987 -117.607472 354 537ft 0kts
08-Nov-20 08:51 33.896987 -117.607472 354 537ft 0kts
08-Nov-20 08:52 33.896987 -117.607472 354 537ft 0kts
08-Nov-20 08:53 33.896987 -117.607472 354 537ft 0kts
08-Nov-20 08:54 33.896987 -117.607472 354 537ft 0kts
08-Nov-20 08:55 33.896987 -117.607472 354 537ft 0kts
08-Nov-20 08:56 33.896987 -117.607472 354 537ft 0kts
08-Nov-20 08:57 33.896987 -117.607472 354 537ft 0kts
08-Nov-20 08:58 33.896987 -117.607472 354 537ft 0kts
08-Nov-20 08:59 33.896987 -117.607472 354 537ft 0kts
08-Nov-20 09:00 33.897639 -117.606687 86 537ft 23kts
08-Nov-20 09:01 33.900649 -117.583253 68 1342ft 77kts
08-Nov-20 09:03 33.914371 -117.564296 3 2343ft 77kts
08-Nov-20 09:04 33.919505 -117.542976 116 2803ft 87kts
08-Nov-20 09:05 33.932282 -117.515967 56 2846ft 102kts
08-Nov-20 09:06 33.948132 -117.489211 43 3173ft 114kts
08-Nov-20 09:07 33.956630 -117.496579 187 3851ft 92kts
08-Nov-20 09:08 33.935693 -117.510329 220 4712ft 83kts
08-Nov-20 09:09 33.917932 -117.531673 241 5257ft 106kts
08-Nov-20 09:10 33.930994 -117.542454 62 6006ft 93kts
08-Nov-20 09:11 33.949540 -117.513578 56 5962ft 118kts
08-Nov-20 09:12 33.948044 -117.486121 176 5891ft 99kts
08-Nov-20 09:13 33.933457 -117.508842 291 6108ft 104kts
08-Nov-20 09:14 33.926635 -117.528483 194 6587ft 85kts
08-Nov-20 09:15 33.931139 -117.534769 48 7108ft 95kts
08-Nov-20 09:16 33.946944 -117.513358 39 7808ft 88kts
08-Nov-20 09:16 33.949734 -117.494892 166 8265ft 93kts
08-Nov-20 09:18 33.932271 -117.518456 234 8945ft 89kts
08-Nov-20 09:18 33.916206 -117.539327 223 8999ft 121kts
08-Nov-20 09:20 33.926766 -117.560014 41 8962ft 108kts
08-Nov-20 09:20 33.944356 -117.538061 47 8965ft 110kts
08-Nov-20 09:22 33.961452 -117.500846 110 8968ft 112kts
08-Nov-20 09:22 33.942890 -117.495909 237 8935ft 106kts
08-Nov-20 09:23 33.926874 -117.525461 227 9005ft 108kts
08-Nov-20 09:24 33.914070 -117.557187 277 8979ft 117kts
08-Nov-20 09:25 33.937527 -117.576715 18 8891ft 121kts
08-Nov-20 09:32 33.896978 -117.607296 180 537ft 0kts
08-Nov-20 09:33 33.896978 -117.607296 180 537ft 0kts
08-Nov-20 09:34 33.896900 -117.607382 255 537ft 3kts
08-Nov-20 09:35 33.896938 -117.607462 334 537ft 0kts
08-Nov-20 09:36 33.896938 -117.607462 334 537ft 0kts
08-Nov-20 09:37 33.896938 -117.607462 334 537ft 0kts
08-Nov-20 09:38 33.896938 -117.607462 334 537ft 0kts
08-Nov-20 09:39 33.896938 -117.607462 334 537ft 0kts
08-Nov-20 09:40 33.896938 -117.607462 334 537ft 0kts
08-Nov-20 09:41 33.896938 -117.607462 334 537ft 0kts
08-Nov-20 09:42 33.896938 -117.607462 334 537ft 0kts
08-Nov-20 09:43 33.896938 -117.607462 334 537ft 0kts
08-Nov-20 09:44 33.897632 -117.606969 80 537ft 0kts
08-Nov-20 09:45 33.897995 -117.588031 78 1073ft 80kts
08-Nov-20 09:46 33.908936 -117.563010 70 1879ft 84kts
08-Nov-20 09:47 33.915183 -117.536856 66 2769ft 80kts
08-Nov-20 09:48 33.932080 -117.515447 45 3640ft 82kts
08-Nov-20 09:49 33.945350 -117.497022 318 4377ft 92kts
08-Nov-20 09:50 33.931969 -117.513502 251 5182ft 88kts
08-Nov-20 09:51 33.917167 -117.534303 242 5952ft 86kts
08-Nov-20 09:52 33.931851 -117.540891 55 6683ft 81kts
08-Nov-20 09:53 33.946900 -117.520019 31 7330ft 84kts
08-Nov-20 09:54 33.968733 -117.507968 21 7935ft 87kts
08-Nov-20 09:55 33.990850 -117.496340 33 8531ft 88kts
08-Nov-20 09:56 34.011585 -117.480277 24 9004ft 99kts
08-Nov-20 09:57 34.039957 -117.461429 33 9017ft 118kts
08-Nov-20 09:58 34.067562 -117.440818 25 8949ft 116kts
08-Nov-20 09:59 34.098069 -117.429339 9 8904ft 112kts
08-Nov-20 10:00 34.126024 -117.414993 27 9061ft 109kts
08-Nov-20 10:01 34.153498 -117.393854 33 9055ft 124kts
08-Nov-20 10:02 34.183662 -117.373977 25 8973ft 125kts
08-Nov-20 10:03 34.213053 -117.355141 30 8900ft 119kts
08-Nov-20 10:04 34.240886 -117.337041 23 9075ft 118kts
08-Nov-20 10:05 34.272404 -117.321163 23 9038ft 122kts
08-Nov-20 10:06 34.304016 -117.304638 20 8966ft 128kts
08-Nov-20 10:07 34.333792 -117.287626 33 8939ft 111kts
08-Nov-20 10:08 34.359784 -117.266600 27 8935ft 108kts
08-Nov-20 10:09 34.388586 -117.249886 27 9002ft 117kts
08-Nov-20 10:10 34.416923 -117.231870 24 9065ft 110kts
08-Nov-20 10:11 34.446750 -117.215956 23 8961ft 119kts
08-Nov-20 10:12 34.474959 -117.197576 35 9025ft 118kts
08-Nov-20 10:13 34.503336 -117.177340 20 9011ft 118kts
08-Nov-20 10:14 34.532789 -117.160380 31 8962ft 112kts
08-Nov-20 10:15 34.556666 -117.145463 11 8998ft 90kts
08-Nov-20 10:16 34.584384 -117.141312 359 9040ft 101kts
08-Nov-20 10:17 34.614273 -117.141046 358 9080ft 104kts
08-Nov-20 10:18 34.643929 -117.153019 339 8928ft 116kts
08-Nov-20 10:19 34.672706 -117.167854 337 8966ft 110kts
08-Nov-20 10:20 34.701666 -117.179761 344 8984ft 110kts
08-Nov-20 10:21 34.725175 -117.202889 318 8120ft 109kts
08-Nov-20 10:22 34.748322 -117.226235 317 7001ft 108kts
08-Nov-20 10:23 34.765801 -117.255130 299 6735ft 104kts
08-Nov-20 10:24 34.777925 -117.287923 296 6363ft 110kts
08-Nov-20 10:25 34.790325 -117.320859 292 5136ft 103kts
08-Nov-20 10:26 34.795355 -117.355109 270 4682ft 103kts
08-Nov-20 10:27 34.780144 -117.382405 221 4493ft 100kts
08-Nov-20 10:28 34.753073 -117.381340 161 4385ft 101kts
08-Nov-20 10:29 34.725690 -117.378934 187 4368ft 99kts
08-Nov-20 10:30 34.698061 -117.382774 186 4356ft 98kts
08-Nov-20 10:31 34.670326 -117.386083 185 3743ft 101kts
08-Nov-20 10:32 34.642902 -117.386848 180 3269ft 96kts
08-Nov-20 10:33 34.616247 -117.385172 175 3259ft 98kts
08-Nov-20 10:34 34.591428 -117.382142 173 4173ft 93kts
08-Nov-20 10:35 34.564927 -117.385809 199 4854ft 103kts
08-Nov-20 10:36 34.560674 -117.407580 319 5575ft 96kts
08-Nov-20 10:37 34.579849 -117.432806 307 6057ft 113kts
08-Nov-20 10:38 34.598884 -117.462141 306 6048ft 112kts
08-Nov-20 10:39 34.616670 -117.494322 304 6031ft 118kts
08-Nov-20 10:40 34.626242 -117.530731 286 5817ft 110kts
08-Nov-20 10:41 34.636996 -117.566312 281 5994ft 115kts
08-Nov-20 10:42 34.642256 -117.605308 277 6109ft 122kts
08-Nov-20 10:43 34.647242 -117.647195 286 5850ft 122kts
08-Nov-20 10:44 34.655559 -117.683679 284 6003ft 111kts
08-Nov-20 10:45 34.661907 -117.721626 275 6070ft 114kts
08-Nov-20 10:46 34.664182 -117.761537 267 6059ft 117kts
08-Nov-20 10:47 34.640242 -117.770339 117 5956ft 112kts
08-Nov-20 10:48 34.635911 -117.734785 88 5885ft 100kts
08-Nov-20 10:49 34.653548 -117.739905 295 6168ft 99kts
08-Nov-20 10:50 34.659491 -117.772764 240 6064ft 119kts
08-Nov-20 10:51 34.649521 -117.754606 46 5712ft 115kts
08-Nov-20 10:52 34.673450 -117.730652 41 5584ft 106kts
08-Nov-20 10:53 34.683221 -117.700908 94 5945ft 100kts
08-Nov-20 10:54 34.679077 -117.671220 91 6704ft 94kts
08-Nov-20 10:55 34.675040 -117.635643 87 7112ft 102kts
08-Nov-20 10:57 34.674530 -117.602656 92 7828ft 85kts
08-Nov-20 10:58 34.671308 -117.570857 93 8038ft 115kts
08-Nov-20 10:59 34.668762 -117.529611 91 8018ft 125kts
08-Nov-20 11:00 34.666652 -117.488744 93 8016ft 117kts
08-Nov-20 11:01 34.664567 -117.447265 94 8056ft 131kts
08-Nov-20 11:02 34.660634 -117.403330 95 7987ft 125kts
08-Nov-20 11:03 34.656636 -117.362030 95 8082ft 119kts
08-Nov-20 11:04 34.665615 -117.322918 66 8002ft 128kts
08-Nov-20 11:05 34.681882 -117.285148 63 7969ft 124kts
08-Nov-20 11:06 34.697447 -117.248467 62 8046ft 121kts
08-Nov-20 11:07 34.713491 -117.211235 63 8011ft 124kts
08-Nov-20 11:08 34.729277 -117.174015 60 8014ft 123kts
08-Nov-20 11:09 34.745558 -117.136957 65 8008ft 124kts
08-Nov-20 11:10 34.760452 -117.099578 60 8016ft 124kts
08-Nov-20 11:11 34.777380 -117.062938 58 8004ft 124kts
08-Nov-20 11:12 34.792387 -117.025139 52 7970ft 126kts
08-Nov-20 11:13 34.809639 -117.037902 252 8010ft 122kts
08-Nov-20 11:13 34.802030 -117.071225 260 8036ft 122kts
08-Nov-20 11:15 34.800303 -117.119251 271 8053ft 124kts
08-Nov-20 11:15 34.800718 -117.153630 272 8001ft 114kts
08-Nov-20 11:17 34.801145 -117.201217 270 7966ft 123kts
08-Nov-20 11:17 34.802106 -117.234192 272 7751ft 117kts
08-Nov-20 11:18 34.802143 -117.273497 267 7143ft 116kts
08-Nov-20 11:19 34.800433 -117.312269 264 6211ft 113kts
08-Nov-20 11:20 34.798317 -117.349827 272 5277ft 101kts
08-Nov-20 11:21 34.796522 -117.380933 207 5270ft 102kts
08-Nov-20 11:22 34.766897 -117.385343 185 4575ft 113kts
08-Nov-20 11:23 34.734923 -117.387115 181 3722ft 113kts
08-Nov-20 11:24 34.705045 -117.387373 179 3720ft 103kts
08-Nov-20 11:25 34.675742 -117.385936 179 3591ft 106kts
08-Nov-20 11:26 34.647085 -117.386792 179 3411ft 93kts
08-Nov-20 11:27 34.624129 -117.386780 177 2926ft 76kts
08-Nov-20 11:28 34.616064 -117.386114 105 2820ft 6kts
08-Nov-20 11:29 34.616026 -117.385497 89 2820ft 0kts
08-Nov-20 11:30 34.613532 -117.384178 176 2824ft 20kts
08-Nov-20 11:31 34.609276 -117.384155 181 2830ft 11kts
08-Nov-20 11:32 34.606482 -117.384142 179 2836ft 9kts
08-Nov-20 11:33 34.602722 -117.384097 177 2840ft 16kts
08-Nov-20 11:34 34.597895 -117.384061 181 2849ft 18kts
08-Nov-20 11:35 34.594781 -117.383799 151 2855ft 7kts
08-Nov-20 11:36 34.592582 -117.381179 134 2860ft 17kts
08-Nov-20 11:37 34.591162 -117.379435 134 2866ft 0kts
08-Nov-20 11:38 34.589510 -117.377371 122 2869ft 10kts

Navigation Log

Ident Type
Flight plan parsing failed, navigation log unavailable